Time;durP1;ratioP1;P1;durP2;ratioP2;P2;SDS_P1;SDS_P2;PMS_P1;PMS_P2;Temp;Humidity;BMP_temperature;BMP_pressure;BME280_temperature;BME280_humidity;BME280_pressure;Samples;Min_cycle;Max_cycle;Signal;HPM_P1;HPM_P2
2024/01/16 00:02:16;;;;;;;;;;;22.70;32.20;;;;;;5034145;28;19924;-67
2024/01/16 00:04:42;;;;;;;;;;;22.70;32.10;;;;;;5034033;28;19956;-67
2024/01/16 00:07:07;;;;;;;;;;;22.90;31.80;;;;;;5051701;28;20122;-67
2024/01/16 00:09:34;;;;;;;;;;;22.90;31.80;;;;;;5034208;28;19920;-67
2024/01/16 00:12:00;;;;;;;;;;;23.00;31.80;;;;;;5033838;28;19967;-67
2024/01/16 00:14:25;;;;;;;;;;;23.20;31.70;;;;;;5033863;28;19964;-67
2024/01/16 00:16:51;;;;;;;;;;;23.10;31.50;;;;;;5033643;28;20351;-67
2024/01/16 00:19:17;;;;;;;;;;;23.20;31.40;;;;;;5051706;28;19929;-67
2024/01/16 00:21:45;;;;;;;;;;;23.20;31.30;;;;;;5034096;28;19967;-67
2024/01/16 00:24:11;;;;;;;;;;;23.20;31.30;;;;;;5034010;28;19921;-67
2024/01/16 00:26:40;;;;;;;;;;;23.30;31.30;;;;;;5037370;28;19920;-67
2024/01/16 00:29:12;;;;;;;;;;;23.30;31.20;;;;;;5037640;28;19921;-67
2024/01/16 00:31:38;;;;;;;;;;;23.30;31.30;;;;;;5055213;28;19940;-67
2024/01/16 00:34:03;;;;;;;;;;;23.30;31.20;;;;;;5055147;28;19921;-67
2024/01/16 00:36:29;;;;;;;;;;;23.20;31.20;;;;;;5037399;28;20020;-67
2024/01/16 00:38:54;;;;;;;;;;;23.30;31.10;;;;;;5036987;28;19970;-67
2024/01/16 00:41:20;;;;;;;;;;;23.20;31.10;;;;;;5037313;28;20351;-67
2024/01/16 00:43:49;;;;;;;;;;;23.20;31.20;;;;;;5054895;28;20461;-66
2024/01/16 00:46:14;;;;;;;;;;;23.20;31.20;;;;;;5036994;28;19921;-67
2024/01/16 00:48:40;;;;;;;;;;;23.10;31.20;;;;;;5054835;28;19928;-67
2024/01/16 00:51:05;;;;;;;;;;;23.00;31.30;;;;;;5037195;28;19925;-67
2024/01/16 00:53:31;;;;;;;;;;;23.10;31.40;;;;;;5036713;28;19925;-67
2024/01/16 00:55:56;;;;;;;;;;;23.00;31.40;;;;;;5037124;28;19988;-67
2024/01/16 00:58:22;;;;;;;;;;;23.00;31.30;;;;;;5036684;28;19975;-67
2024/01/16 01:00:48;;;;;;;;;;;23.00;31.30;;;;;;5054606;28;19925;-67
2024/01/16 01:03:13;;;;;;;;;;;23.00;31.40;;;;;;5036702;28;19927;-67
2024/01/16 01:05:39;;;;;;;;;;;22.90;31.40;;;;;;5036877;28;19921;-67
2024/01/16 01:08:05;;;;;;;;;;;22.90;31.50;;;;;;5054471;28;19920;-67
2024/01/16 01:10:31;;;;;;;;;;;22.90;31.40;;;;;;5036758;28;19920;-67
2024/01/16 01:12:59;;;;;;;;;;;22.90;31.40;;;;;;5054352;28;19963;-67
2024/01/16 01:15:24;;;;;;;;;;;22.90;31.40;;;;;;5036505;28;20003;-67
2024/01/16 01:17:51;;;;;;;;;;;22.90;31.40;;;;;;5036103;28;20016;-67
2024/01/16 01:20:17;;;;;;;;;;;22.90;31.40;;;;;;5036338;28;20376;-67
2024/01/16 01:22:44;;;;;;;;;;;22.90;31.40;;;;;;5036317;28;19920;-67
2024/01/16 01:25:10;;;;;;;;;;;22.80;31.40;;;;;;5036528;28;19943;-67
2024/01/16 01:27:36;;;;;;;;;;;22.80;31.40;;;;;;5036798;28;19963;-66
2024/01/16 01:30:01;;;;;;;;;;;22.80;31.40;;;;;;5053976;28;19963;-66
2024/01/16 01:32:27;;;;;;;;;;;22.80;31.40;;;;;;5054104;28;20027;-67
2024/01/16 01:34:52;;;;;;;;;;;22.80;31.40;;;;;;5036070;28;19947;-67
2024/01/16 01:37:18;;;;;;;;;;;22.80;31.30;;;;;;5036164;28;19975;-67
2024/01/16 01:39:43;;;;;;;;;;;22.80;31.30;;;;;;5036096;28;19928;-66
2024/01/16 01:42:09;;;;;;;;;;;22.80;31.30;;;;;;5054000;28;19920;-67
2024/01/16 01:44:34;;;;;;;;;;;22.80;31.40;;;;;;5036213;28;19921;-67
2024/01/16 01:47:00;;;;;;;;;;;22.80;31.40;;;;;;5036117;28;20422;-67
2024/01/16 01:49:26;;;;;;;;;;;22.80;31.30;;;;;;5036020;28;20434;-67
2024/01/16 01:51:52;;;;;;;;;;;22.80;31.30;;;;;;5035754;28;19921;-67
2024/01/16 01:54:19;;;;;;;;;;;22.80;31.30;;;;;;5035972;28;19921;-66
2024/01/16 01:56:46;;;;;;;;;;;22.90;31.40;;;;;;5035613;28;19920;-66
2024/01/16 01:59:13;;;;;;;;;;;22.90;31.30;;;;;;5035870;28;19924;-67
2024/01/16 02:01:39;;;;;;;;;;;22.80;31.20;;;;;;5053530;28;19928;-66
2024/01/16 02:04:06;;;;;;;;;;;22.80;31.30;;;;;;5035821;28;19964;-67
2024/01/16 02:06:32;;;;;;;;;;;22.80;31.30;;;;;;5035713;28;19921;-67
2024/01/16 02:08:58;;;;;;;;;;;22.80;31.30;;;;;;5035551;28;19924;-67
2024/01/16 02:11:24;;;;;;;;;;;22.70;31.30;;;;;;5035531;28;19921;-67
2024/01/16 02:13:49;;;;;;;;;;;22.70;31.40;;;;;;5035678;28;19973;-67
2024/01/16 02:16:19;;;;;;;;;;;22.60;31.50;;;;;;5035178;28;20288;-66
2024/01/16 02:18:45;;;;;;;;;;;22.60;31.50;;;;;;5035172;28;19964;-67
2024/01/16 02:21:12;;;;;;;;;;;22.60;31.60;;;;;;5035053;28;20442;-66
2024/01/16 02:23:38;;;;;;;;;;;22.60;31.60;;;;;;5035545;28;19925;-67
2024/01/16 02:26:03;;;;;;;;;;;22.50;31.60;;;;;;5052819;28;19974;-67
2024/01/16 02:28:29;;;;;;;;;;;22.50;31.60;;;;;;5035354;28;19921;-67
2024/01/16 02:30:54;;;;;;;;;;;22.50;31.60;;;;;;5053001;28;19921;-68
2024/01/16 02:33:20;;;;;;;;;;;22.50;31.60;;;;;;5035060;28;20407;-67
2024/01/16 02:35:45;;;;;;;;;;;22.50;31.60;;;;;;5034953;28;19923;-67
2024/01/16 02:38:11;;;;;;;;;;;22.50;31.60;;;;;;5034817;28;19974;-67
2024/01/16 02:40:36;;;;;;;;;;;22.50;31.60;;;;;;5034732;28;19928;-67
2024/01/16 02:43:02;;;;;;;;;;;22.40;31.70;;;;;;5035165;28;19928;-66
2024/01/16 02:45:27;;;;;;;;;;;22.40;31.80;;;;;;5034775;28;20388;-67
2024/01/16 02:47:53;;;;;;;;;;;22.40;31.60;;;;;;5034748;28;19921;-67
2024/01/16 02:50:20;;;;;;;;;;;22.30;31.70;;;;;;5052952;28;19921;-67
2024/01/16 02:52:45;;;;;;;;;;;22.30;31.80;;;;;;5035246;28;19921;-67
2024/01/16 02:55:11;;;;;;;;;;;22.30;31.80;;;;;;5034667;28;20269;-66
2024/01/16 02:57:37;;;;;;;;;;;22.40;31.80;;;;;;5034696;28;19929;-67
2024/01/16 03:00:03;;;;;;;;;;;22.30;31.80;;;;;;5035119;28;19921;-67
2024/01/16 03:02:29;;;;;;;;;;;22.40;31.80;;;;;;5034798;28;19921;-67
2024/01/16 03:04:55;;;;;;;;;;;22.30;31.80;;;;;;5034762;28;19970;-67
2024/01/16 03:07:20;;;;;;;;;;;22.30;31.70;;;;;;5034697;28;19920;-67
2024/01/16 03:09:46;;;;;;;;;;;22.40;31.80;;;;;;5052572;28;19921;-67
2024/01/16 03:12:14;;;;;;;;;;;22.40;31.70;;;;;;5034606;28;20526;-67
2024/01/16 03:14:40;;;;;;;;;;;22.40;31.80;;;;;;5034330;28;19921;-67
2024/01/16 03:17:06;;;;;;;;;;;22.40;31.80;;;;;;5034019;28;20325;-67
2024/01/16 03:19:32;;;;;;;;;;;22.40;31.70;;;;;;5034297;28;19921;-66
2024/01/16 03:21:58;;;;;;;;;;;22.40;31.70;;;;;;5034268;28;19920;-66
2024/01/16 03:24:24;;;;;;;;;;;22.50;31.70;;;;;;5018217;28;19920;-67
2024/01/16 03:26:49;;;;;;;;;;;22.40;31.70;;;;;;5052050;28;20327;-66
2024/01/16 03:29:15;;;;;;;;;;;22.30;31.70;;;;;;5034721;28;19921;-66
2024/01/16 03:31:40;;;;;;;;;;;22.30;31.70;;;;;;5034238;28;19975;-67
2024/01/16 03:34:08;;;;;;;;;;;22.30;31.70;;;;;;5034154;28;19928;-67
2024/01/16 03:36:34;;;;;;;;;;;22.30;31.70;;;;;;5034478;28;20000;-67
2024/01/16 03:39:02;;;;;;;;;;;22.30;31.80;;;;;;5034017;28;19932;-66
2024/01/16 03:41:28;;;;;;;;;;;22.20;31.80;;;;;;5051942;28;19920;-66
2024/01/16 03:43:56;;;;;;;;;;;22.20;31.80;;;;;;5034048;28;19943;-66
2024/01/16 03:46:22;;;;;;;;;;;22.20;31.90;;;;;;5034467;28;19921;-67
2024/01/16 03:48:48;;;;;;;;;;;22.20;32.00;;;;;;5051922;28;20430;-67
2024/01/16 03:51:15;;;;;;;;;;;22.20;31.90;;;;;;5034096;28;19971;-66
2024/01/16 03:53:41;;;;;;;;;;;22.20;32.00;;;;;;5034312;28;20153;-66
2024/01/16 03:56:07;;;;;;;;;;;22.10;31.90;;;;;;5034064;28;19999;-67
2024/01/16 03:58:33;;;;;;;;;;;22.10;32.00;;;;;;5051758;28;19940;-66
2024/01/16 04:00:59;;;;;;;;;;;22.10;32.00;;;;;;5037235;28;19921;-67
2024/01/16 04:03:25;;;;;;;;;;;22.10;32.00;;;;;;5037938;28;19997;-67
2024/01/16 04:05:50;;;;;;;;;;;22.10;32.00;;;;;;5055674;28;19920;-66
2024/01/16 04:08:19;;;;;;;;;;;22.10;32.10;;;;;;5038120;28;20374;-66
2024/01/16 04:10:44;;;;;;;;;;;22.00;32.10;;;;;;5038092;28;19921;-67
2024/01/16 04:13:10;;;;;;;;;;;22.00;32.10;;;;;;5037621;28;19921;-67
2024/01/16 04:15:37;;;;;;;;;;;22.00;32.10;;;;;;5037818;28;19967;-67
2024/01/16 04:18:06;;;;;;;;;;;22.00;32.10;;;;;;5037301;28;19931;-67
2024/01/16 04:20:32;;;;;;;;;;;22.00;32.10;;;;;;5037455;28;19921;-67
2024/01/16 04:22:58;;;;;;;;;;;22.00;32.10;;;;;;5055363;28;19927;-67
2024/01/16 04:25:23;;;;;;;;;;;22.00;32.10;;;;;;5037634;28;19974;-67
2024/01/16 04:27:49;;;;;;;;;;;22.00;32.10;;;;;;5037531;28;19920;-66
2024/01/16 04:30:14;;;;;;;;;;;22.00;32.10;;;;;;5055138;28;19927;-67
2024/01/16 04:32:40;;;;;;;;;;;22.00;32.10;;;;;;5037588;28;19921;-67
2024/01/16 04:35:06;;;;;;;;;;;22.00;32.10;;;;;;5055246;28;19942;-66
2024/01/16 04:37:31;;;;;;;;;;;22.00;32.00;;;;;;5037365;28;20011;-66
2024/01/16 04:39:59;;;;;;;;;;;22.00;32.10;;;;;;5037038;28;20015;-66
2024/01/16 04:42:24;;;;;;;;;;;22.00;32.00;;;;;;5037472;28;19975;-66
2024/01/16 04:44:53;;;;;;;;;;;22.00;32.10;;;;;;5054862;28;20407;-66
2024/01/16 04:47:18;;;;;;;;;;;22.00;32.10;;;;;;5037065;28;19921;-67
2024/01/16 04:49:44;;;;;;;;;;;22.00;32.10;;;;;;5037223;28;20095;-66
2024/01/16 04:52:09;;;;;;;;;;;22.00;32.00;;;;;;5037299;28;19921;-67
2024/01/16 04:54:35;;;;;;;;;;;22.00;32.00;;;;;;5054829;28;20395;-66
2024/01/16 04:57:00;;;;;;;;;;;22.10;32.00;;;;;;5036750;28;19920;-66
2024/01/16 04:59:26;;;;;;;;;;;22.10;32.00;;;;;;5037046;28;19935;-66
2024/01/16 05:01:51;;;;;;;;;;;22.00;32.00;;;;;;5054549;28;20295;-66
2024/01/16 05:04:17;;;;;;;;;;;22.00;31.90;;;;;;5036788;28;20372;-67
2024/01/16 05:06:42;;;;;;;;;;;22.00;32.00;;;;;;5036947;28;20019;-66
2024/01/16 05:09:09;;;;;;;;;;;22.00;32.00;;;;;;5054597;28;19928;-67
2024/01/16 05:11:35;;;;;;;;;;;22.10;32.00;;;;;;5036094;28;19927;-66
2024/01/16 05:14:00;;;;;;;;;;;22.10;31.90;;;;;;5036927;28;19920;-67
2024/01/16 05:16:26;;;;;;;;;;;22.10;31.80;;;;;;5036486;28;20353;-67
2024/01/16 05:18:53;;;;;;;;;;;22.20;31.90;;;;;;5036324;28;20363;-66
2024/01/16 05:21:22;;;;;;;;;;;22.20;31.80;;;;;;5036549;28;19921;-67
2024/01/16 05:23:48;;;;;;;;;;;22.20;31.80;;;;;;5036672;28;20592;-67
2024/01/16 05:26:13;;;;;;;;;;;22.30;31.80;;;;;;5036344;28;19928;-66
2024/01/16 05:28:39;;;;;;;;;;;22.40;31.80;;;;;;5054058;28;20078;-67
2024/01/16 05:31:04;;;;;;;;;;;22.40;31.60;;;;;;5054183;28;19921;-67
2024/01/16 05:33:30;;;;;;;;;;;22.40;31.60;;;;;;5054248;28;19928;-67
2024/01/16 05:35:57;;;;;;;;;;;22.40;31.50;;;;;;5036391;28;19960;-66
2024/01/16 05:38:22;;;;;;;;;;;22.40;31.50;;;;;;5036019;28;20199;-67
2024/01/16 05:40:48;;;;;;;;;;;22.40;31.40;;;;;;5036628;28;20203;-67
2024/01/16 05:43:14;;;;;;;;;;;22.40;31.50;;;;;;5053845;28;19921;-67
2024/01/16 05:45:42;;;;;;;;;;;22.40;31.50;;;;;;5036667;28;19924;-67
2024/01/16 05:48:08;;;;;;;;;;;22.40;31.50;;;;;;5036284;28;19928;-67
2024/01/16 05:50:34;;;;;;;;;;;22.40;31.50;;;;;;5035864;28;20291;-66
2024/01/16 05:53:00;;;;;;;;;;;22.40;31.40;;;;;;5035765;28;19921;-67
2024/01/16 05:55:25;;;;;;;;;;;22.40;31.40;;;;;;5036033;28;19947;-67
2024/01/16 05:57:51;;;;;;;;;;;22.40;31.40;;;;;;5053468;28;19980;-67
2024/01/16 06:00:18;;;;;;;;;;;22.40;31.30;;;;;;5035938;28;20150;-67
2024/01/16 06:02:43;;;;;;;;;;;22.50;31.30;;;;;;5035506;28;19921;-68
2024/01/16 06:05:09;;;;;;;;;;;22.40;31.30;;;;;;5035597;28;20299;-67
2024/01/16 06:07:35;;;;;;;;;;;22.40;31.30;;;;;;5035719;28;20280;-67
2024/01/16 06:10:00;;;;;;;;;;;22.40;31.20;;;;;;5053512;28;20020;-67
2024/01/16 06:12:26;;;;;;;;;;;22.40;31.20;;;;;;5018988;28;20383;-67
2024/01/16 06:14:51;;;;;;;;;;;22.40;31.20;;;;;;5035627;28;19921;-67
2024/01/16 06:17:17;;;;;;;;;;;22.40;31.10;;;;;;5035167;28;19925;-67
2024/01/16 06:19:42;;;;;;;;;;;22.50;31.20;;;;;;5035167;28;19924;-67
2024/01/16 06:22:08;;;;;;;;;;;22.40;31.10;;;;;;5052598;28;19921;-67
2024/01/16 06:24:36;;;;;;;;;;;22.50;31.20;;;;;;5035549;28;19921;-66
2024/01/16 06:27:04;;;;;;;;;;;22.50;31.20;;;;;;5053130;28;19921;-67
2024/01/16 06:29:29;;;;;;;;;;;22.40;31.10;;;;;;5035361;28;19974;-67
2024/01/16 06:31:55;;;;;;;;;;;22.40;31.10;;;;;;5052850;28;19925;-67
2024/01/16 06:34:20;;;;;;;;;;;22.40;31.10;;;;;;5035040;28;19920;-67
2024/01/16 06:36:46;;;;;;;;;;;22.50;31.10;;;;;;5035321;28;19966;-67
2024/01/16 06:39:13;;;;;;;;;;;22.50;31.20;;;;;;5051675;28;20434;-67
2024/01/16 06:41:40;;;;;;;;;;;22.40;31.10;;;;;;5052912;28;19921;-68
2024/01/16 06:44:06;;;;;;;;;;;22.40;31.10;;;;;;5037341;28;20368;-66
2024/01/16 06:46:31;;;;;;;;;;;22.50;31.10;;;;;;5070386;28;19921;-67
2024/01/16 06:48:57;;;;;;;;;;;22.40;31.10;;;;;;5071898;28;20375;-67
2024/01/16 06:51:22;;;;;;;;;;;22.40;31.10;;;;;;5072428;28;19921;-67
2024/01/16 06:53:48;;;;;;;;;;;22.40;31.10;;;;;;5036771;28;19921;-67
2024/01/16 06:56:13;;;;;;;;;;;22.40;31.10;;;;;;5034462;28;19928;-67
2024/01/16 06:58:39;;;;;;;;;;;22.40;31.10;;;;;;5032807;28;19932;-67
2024/01/16 07:01:04;;;;;;;;;;;22.40;31.10;;;;;;5047801;28;19920;-66
2024/01/16 07:03:30;;;;;;;;;;;22.40;31.10;;;;;;5054466;28;19921;-66
2024/01/16 07:05:59;;;;;;;;;;;22.40;31.10;;;;;;5047493;28;19971;-67
2024/01/16 07:08:24;;;;;;;;;;;22.40;31.10;;;;;;5044420;28;19921;-67
2024/01/16 07:10:50;;;;;;;;;;;22.50;31.20;;;;;;5035279;28;19944;-66
2024/01/16 07:13:16;;;;;;;;;;;22.50;31.20;;;;;;5027602;28;19929;-66
2024/01/16 07:15:41;;;;;;;;;;;22.40;31.20;;;;;;5020087;28;19932;-67
2024/01/16 07:18:10;;;;;;;;;;;22.40;31.30;;;;;;5023669;28;19936;-67
2024/01/16 07:20:35;;;;;;;;;;;22.40;31.30;;;;;;5031094;28;20007;-66
2024/01/16 07:23:01;;;;;;;;;;;22.50;31.40;;;;;;5030303;28;20149;-68
2024/01/16 07:25:26;;;;;;;;;;;22.60;31.30;;;;;;5009517;28;19928;-67
2024/01/16 07:27:52;;;;;;;;;;;22.60;31.20;;;;;;5028684;28;19965;-67
2024/01/16 07:30:17;;;;;;;;;;;22.80;31.20;;;;;;5037789;28;20019;-68
2024/01/16 07:32:43;;;;;;;;;;;22.90;31.40;;;;;;5014072;28;19925;-68
2024/01/16 07:35:11;;;;;;;;;;;23.10;31.50;;;;;;5037021;28;19944;-69
2024/01/16 07:37:37;;;;;;;;;;;23.20;31.40;;;;;;5018165;28;19925;-68
2024/01/16 07:40:05;;;;;;;;;;;23.30;31.10;;;;;;5017404;28;19933;-68
2024/01/16 07:42:34;;;;;;;;;;;23.30;31.10;;;;;;5033413;28;19944;-67
2024/01/16 07:45:01;;;;;;;;;;;23.30;31.00;;;;;;5037189;28;19925;-67
2024/01/16 07:47:26;;;;;;;;;;;23.20;31.10;;;;;;5020353;28;20418;-68
2024/01/16 07:49:52;;;;;;;;;;;23.10;31.10;;;;;;5020976;28;19925;-68
2024/01/16 07:52:17;;;;;;;;;;;23.10;31.30;;;;;;5037823;28;19976;-67
2024/01/16 07:54:43;;;;;;;;;;;23.00;31.40;;;;;;5026571;28;19924;-67
2024/01/16 07:57:08;;;;;;;;;;;23.00;31.70;;;;;;5019702;28;20024;-69
2024/01/16 07:59:34;;;;;;;;;;;22.90;31.90;;;;;;5027144;28;20027;-67
2024/01/16 08:01:59;;;;;;;;;;;22.90;32.20;;;;;;5036669;28;19921;-67
2024/01/16 08:04:31;;;;;;;;;;;22.90;32.30;;;;;;5023095;28;19970;-67
2024/01/16 08:06:56;;;;;;;;;;;22.90;32.50;;;;;;5039218;28;20506;-68
2024/01/16 08:09:22;;;;;;;;;;;22.90;32.60;;;;;;5040405;28;19998;-68
2024/01/16 08:11:48;;;;;;;;;;;22.90;32.70;;;;;;5019974;28;20384;-67
2024/01/16 08:14:13;;;;;;;;;;;22.80;32.80;;;;;;5018135;28;19927;-68
2024/01/16 08:16:39;;;;;;;;;;;22.80;33.00;;;;;;5021599;28;19933;-67
2024/01/16 08:19:04;;;;;;;;;;;22.80;33.00;;;;;;5019527;28;19935;-69
2024/01/16 08:21:30;;;;;;;;;;;22.90;33.00;;;;;;5035853;28;19963;-67
2024/01/16 08:23:55;;;;;;;;;;;22.90;33.00;;;;;;5019142;28;19921;-68
2024/01/16 08:26:21;;;;;;;;;;;22.90;33.80;;;;;;5019968;28;19921;-67
2024/01/16 08:28:46;;;;;;;;;;;22.90;33.20;;;;;;5022679;28;19925;-68
2024/01/16 08:31:12;;;;;;;;;;;22.90;33.10;;;;;;5019341;28;19927;-69
2024/01/16 08:33:37;;;;;;;;;;;22.80;33.20;;;;;;5021508;28;20019;-69
2024/01/16 08:36:04;;;;;;;;;;;22.80;33.30;;;;;;5018981;28;20347;-68
2024/01/16 08:38:29;;;;;;;;;;;22.90;33.30;;;;;;5035027;28;19925;-68
2024/01/16 08:40:55;;;;;;;;;;;22.80;33.30;;;;;;5018147;28;19928;-68
2024/01/16 08:43:20;;;;;;;;;;;22.90;33.30;;;;;;5021076;28;19978;-68
2024/01/16 08:45:47;;;;;;;;;;;22.80;33.20;;;;;;5035870;28;20081;-67
2024/01/16 08:48:14;;;;;;;;;;;22.90;33.30;;;;;;5023885;28;19921;-67
2024/01/16 08:50:40;;;;;;;;;;;22.90;33.30;;;;;;5022646;28;19931;-67
2024/01/16 08:53:06;;;;;;;;;;;22.90;33.30;;;;;;5036510;28;20357;-68
2024/01/16 08:55:32;;;;;;;;;;;22.90;33.30;;;;;;5023527;28;19970;-68
2024/01/16 08:57:57;;;;;;;;;;;22.90;33.30;;;;;;5017485;28;19933;-70
2024/01/16 09:00:27;;;;;;;;;;;22.90;33.30;;;;;;5020675;28;19925;-67
2024/01/16 09:02:52;;;;;;;;;;;22.90;33.30;;;;;;5035233;28;19956;-68
2024/01/16 09:05:18;;;;;;;;;;;22.90;33.30;;;;;;5018736;28;20307;-67
2024/01/16 09:07:43;;;;;;;;;;;22.90;33.30;;;;;;5037487;28;19932;-68
2024/01/16 09:10:09;;;;;;;;;;;22.90;33.30;;;;;;5020601;28;20376;-67
2024/01/16 09:12:34;;;;;;;;;;;22.90;33.30;;;;;;5035284;28;20003;-67
2024/01/16 09:15:00;;;;;;;;;;;22.90;33.40;;;;;;5033105;28;20392;-70
2024/01/16 09:17:26;;;;;;;;;;;22.90;33.30;;;;;;5017487;28;19929;-68
2024/01/16 09:19:54;;;;;;;;;;;22.90;33.40;;;;;;5032235;28;20419;-67
2024/01/16 09:22:20;;;;;;;;;;;22.90;33.30;;;;;;5015449;28;19998;-67
2024/01/16 09:24:45;;;;;;;;;;;22.90;33.30;;;;;;5012158;28;20304;-67
2024/01/16 09:27:11;;;;;;;;;;;22.90;33.40;;;;;;5018506;28;19925;-67
2024/01/16 09:29:36;;;;;;;;;;;22.90;33.40;;;;;;5018446;28;19921;-67
2024/01/16 09:32:02;;;;;;;;;;;22.90;33.40;;;;;;5004236;28;20243;-68
2024/01/16 09:34:28;;;;;;;;;;;22.90;33.50;;;;;;5017114;28;19936;-69
2024/01/16 09:36:54;;;;;;;;;;;22.90;33.40;;;;;;5021503;28;19931;-67
2024/01/16 09:39:19;;;;;;;;;;;22.90;33.30;;;;;;5014981;28;20324;-68
2024/01/16 09:41:45;;;;;;;;;;;22.90;33.20;;;;;;5014632;28;19925;-67
2024/01/16 09:44:11;;;;;;;;;;;22.90;33.00;;;;;;5019614;28;19924;-68
2024/01/16 09:46:37;;;;;;;;;;;22.80;33.00;;;;;;5013806;28;19979;-68
2024/01/16 09:49:03;;;;;;;;;;;22.70;32.90;;;;;;5016161;28;19955;-67
2024/01/16 09:51:35;;;;;;;;;;;22.70;32.90;;;;;;5015516;28;19924;-66
2024/01/16 09:54:01;;;;;;;;;;;22.70;32.80;;;;;;5031971;28;19925;-68
2024/01/16 09:56:31;;;;;;;;;;;22.70;32.90;;;;;;5014606;28;19959;-67
2024/01/16 09:59:01;;;;;;;;;;;22.80;33.00;;;;;;5014825;28;19924;-67
2024/01/16 10:01:27;;;;;;;;;;;22.80;32.90;;;;;;5013285;28;19982;-68
2024/01/16 10:03:53;;;;;;;;;;;22.80;32.90;;;;;;5031503;28;19921;-67
2024/01/16 10:06:19;;;;;;;;;;;22.80;33.00;;;;;;5024129;28;19932;-68
2024/01/16 10:08:45;;;;;;;;;;;22.80;33.00;;;;;;5034158;28;19925;-67
2024/01/16 10:11:11;;;;;;;;;;;22.80;33.00;;;;;;5014980;28;19921;-67
2024/01/16 10:13:37;;;;;;;;;;;22.90;33.00;;;;;;5034229;28;19936;-67
2024/01/16 10:16:03;;;;;;;;;;;22.90;33.00;;;;;;5016798;28;20822;-67
2024/01/16 10:18:30;;;;;;;;;;;22.90;33.00;;;;;;5035332;28;20014;-67
2024/01/16 10:20:56;;;;;;;;;;;22.90;33.00;;;;;;5039894;28;20102;-66
2024/01/16 10:23:23;;;;;;;;;;;22.90;33.10;;;;;;5016055;28;20436;-66
2024/01/16 10:26:04;;;;;;;;;;;22.90;33.10;;;;;;5021672;28;19924;-66
2024/01/16 10:28:29;;;;;;;;;;;23.00;33.10;;;;;;5034900;28;20064;-66
2024/01/16 10:31:01;;;;;;;;;;;23.00;33.10;;;;;;5024132;28;20292;-66
2024/01/16 10:33:27;;;;;;;;;;;23.00;33.00;;;;;;5022152;28;19925;-67
2024/01/16 10:36:18;;;;;;;;;;;23.00;33.10;;;;;;5018378;28;19927;-66
2024/01/16 10:38:44;;;;;;;;;;;23.00;33.10;;;;;;5026489;28;19928;-66
2024/01/16 10:41:11;;;;;;;;;;;22.90;33.10;;;;;;5023028;28;19921;-66
2024/01/16 10:43:36;;;;;;;;;;;22.80;33.10;;;;;;5025085;28;19925;-67
2024/01/16 10:46:11;;;;;;;;;;;22.60;33.30;;;;;;5015437;28;19929;-67
2024/01/16 10:48:38;;;;;;;;;;;22.50;33.50;;;;;;5040370;28;19929;-69
2024/01/16 10:51:05;;;;;;;;;;;22.40;33.80;;;;;;5017654;28;19960;-68
2024/01/16 10:53:32;;;;;;;;;;;22.10;34.00;;;;;;5033496;28;19924;-69
2024/01/16 10:55:59;;;;;;;;;;;22.00;34.40;;;;;;5020489;28;20011;-68
2024/01/16 10:58:26;;;;;;;;;;;22.00;34.60;;;;;;5018956;28;20043;-70
2024/01/16 11:00:53;;;;;;;;;;;22.00;34.60;;;;;;5016442;28;20324;-67
2024/01/16 11:03:21;;;;;;;;;;;22.10;34.50;;;;;;5034405;28;19924;-66
2024/01/16 11:05:47;;;;;;;;;;;22.30;34.40;;;;;;5038679;28;20214;-66
2024/01/16 11:08:13;;;;;;;;;;;22.40;34.20;;;;;;5020630;28;20343;-66
2024/01/16 11:10:40;;;;;;;;;;;22.50;34.00;;;;;;5022479;28;19925;-66
2024/01/16 11:13:06;;;;;;;;;;;22.60;33.80;;;;;;5040904;28;20345;-66
2024/01/16 11:15:31;;;;;;;;;;;22.70;33.70;;;;;;5036233;28;19964;-66
2024/01/16 11:17:59;;;;;;;;;;;22.80;33.60;;;;;;5016080;28;20044;-68
2024/01/16 11:20:27;;;;;;;;;;;22.90;33.60;;;;;;5002966;28;23348;-67
2024/01/16 11:22:59;;;;;;;;;;;22.90;33.60;;;;;;5017818;28;19925;-66
2024/01/16 11:25:30;;;;;;;;;;;23.10;33.50;;;;;;5015342;28;20071;-67
2024/01/16 11:28:07;;;;;;;;;;;23.20;33.30;;;;;;5016981;28;20040;-68
2024/01/16 11:30:32;;;;;;;;;;;23.40;33.10;;;;;;5015303;28;19925;-68
2024/01/16 11:32:58;;;;;;;;;;;23.50;32.90;;;;;;5017646;28;20514;-67
2024/01/16 11:35:32;;;;;;;;;;;23.50;32.80;;;;;;5011007;28;20010;-66
2024/01/16 11:38:16;;;;;;;;;;;23.50;32.80;;;;;;5014316;28;19933;-67
2024/01/16 11:40:46;;;;;;;;;;;23.40;32.90;;;;;;5013368;28;19930;-66
2024/01/16 11:43:31;;;;;;;;;;;23.20;32.90;;;;;;5019925;28;19925;-67
2024/01/16 11:45:58;;;;;;;;;;;23.00;33.10;;;;;;5013526;28;19929;-67
2024/01/16 11:48:24;;;;;;;;;;;22.80;33.30;;;;;;5013632;28;20234;-70
2024/01/16 11:50:50;;;;;;;;;;;22.60;33.40;;;;;;5014816;28;19922;-68
2024/01/16 11:56:20;;;;;;;;;;;22.20;33.90;;;;;;5076862;27;20299;-68
2024/01/16 12:01:27;;;;;;;;;;;21.90;34.60;;;;;;5090740;27;19950;-70
2024/01/16 12:04:09;;;;;;;;;;;21.90;34.80;;;;;;5121494;27;20200;-69
2024/01/16 12:06:35;;;;;;;;;;;22.00;34.90;;;;;;5089253;28;20402;-69
2024/01/16 12:09:18;;;;;;;;;;;22.20;34.90;;;;;;5087515;28;19924;-70
2024/01/16 12:11:45;;;;;;;;;;;22.40;34.60;;;;;;5085404;28;19977;-69
2024/01/16 12:14:11;;;;;;;;;;;22.60;34.60;;;;;;5087499;28;19931;-68
2024/01/16 12:16:37;;;;;;;;;;;22.80;34.40;;;;;;5084917;28;20112;-71
2024/01/16 12:19:05;;;;;;;;;;;22.90;34.30;;;;;;5084984;28;20062;-68
2024/01/16 12:21:41;;;;;;;;;;;23.00;34.40;;;;;;5081433;28;20012;-69
2024/01/16 12:24:06;;;;;;;;;;;23.20;34.30;;;;;;5091487;28;20018;-69
2024/01/16 12:26:35;;;;;;;;;;;23.40;34.00;;;;;;5087086;28;20082;-70
2024/01/16 12:29:00;;;;;;;;;;;23.50;33.90;;;;;;5092142;28;19928;-68
2024/01/16 12:31:27;;;;;;;;;;;23.40;33.80;;;;;;5086391;28;20286;-69
2024/01/16 12:33:52;;;;;;;;;;;23.30;34.10;;;;;;5086659;28;19920;-68
2024/01/16 12:36:18;;;;;;;;;;;23.30;33.20;;;;;;5084293;28;19924;-68
2024/01/16 12:38:43;;;;;;;;;;;23.30;33.00;;;;;;5083524;28;20257;-68
2024/01/16 12:41:10;;;;;;;;;;;23.20;33.20;;;;;;5088938;28;19955;-69
2024/01/16 12:43:37;;;;;;;;;;;23.10;33.30;;;;;;5084977;28;19926;-67
2024/01/16 12:46:03;;;;;;;;;;;23.00;33.40;;;;;;5073102;28;19970;-67
2024/01/16 12:48:31;;;;;;;;;;;22.90;33.60;;;;;;5084250;28;20051;-67
2024/01/16 12:51:00;;;;;;;;;;;22.80;33.80;;;;;;5088710;28;19978;-67
2024/01/16 12:53:25;;;;;;;;;;;22.80;33.90;;;;;;5102531;27;19924;-71
2024/01/16 12:55:57;;;;;;;;;;;22.80;34.00;;;;;;5086692;28;20452;-67
2024/01/16 12:58:24;;;;;;;;;;;22.80;34.10;;;;;;5088216;28;19928;-68
2024/01/16 13:00:51;;;;;;;;;;;22.90;34.40;;;;;;5098601;28;20109;-67
2024/01/16 13:03:18;;;;;;;;;;;22.80;34.30;;;;;;5089704;28;19919;-66
2024/01/16 13:05:54;;;;;;;;;;;22.90;34.20;;;;;;5085985;28;19952;-67
2024/01/16 13:08:20;;;;;;;;;;;22.90;34.10;;;;;;5103727;28;20343;-68
2024/01/16 13:10:46;;;;;;;;;;;22.90;34.20;;;;;;5088314;28;19920;-67
2024/01/16 13:15:53;;;;;;;;;;;23.00;34.20;;;;;;5088233;27;20511;-67
2024/01/16 13:18:21;;;;;;;;;;;23.00;34.20;;;;;;5071941;28;19925;-66
2024/01/16 13:20:48;;;;;;;;;;;23.00;34.40;;;;;;5104833;28;20383;-66
2024/01/16 13:23:17;;;;;;;;;;;23.00;34.40;;;;;;5075409;28;20346;-67
2024/01/16 13:25:44;;;;;;;;;;;23.10;34.40;;;;;;5073937;28;19925;-72
2024/01/16 13:28:10;;;;;;;;;;;23.10;34.30;;;;;;5078067;28;19928;-68
2024/01/16 13:30:36;;;;;;;;;;;23.20;34.40;;;;;;5073795;28;20413;-66
2024/01/16 13:33:02;;;;;;;;;;;23.10;34.30;;;;;;5073760;28;20219;-66
2024/01/16 13:35:28;;;;;;;;;;;23.10;34.20;;;;;;5075194;28;19932;-70
2024/01/16 13:37:53;;;;;;;;;;;23.20;34.20;;;;;;5074312;28;20391;-69
2024/01/16 13:40:19;;;;;;;;;;;23.20;34.20;;;;;;5101044;28;19924;-68
2024/01/16 13:42:46;;;;;;;;;;;23.20;34.20;;;;;;5075221;28;19924;-70
2024/01/16 13:45:13;;;;;;;;;;;23.20;34.20;;;;;;5071781;28;19924;-68
2024/01/16 13:47:40;;;;;;;;;;;23.10;34.20;;;;;;5104811;28;20379;-67
2024/01/16 13:50:07;;;;;;;;;;;23.00;34.30;;;;;;5063295;28;19924;-67
2024/01/16 13:52:33;;;;;;;;;;;23.00;34.40;;;;;;5074941;28;20291;-69
2024/01/16 13:55:01;;;;;;;;;;;23.00;34.40;;;;;;5099111;28;20344;-69
2024/01/16 13:57:26;;;;;;;;;;;22.90;34.50;;;;;;5101025;28;19927;-66
2024/01/16 13:59:52;;;;;;;;;;;22.80;34.50;;;;;;5094484;27;19932;-67
2024/01/16 14:02:17;;;;;;;;;;;22.70;34.80;;;;;;5067317;28;19951;-68
2024/01/16 14:04:43;;;;;;;;;;;22.70;35.50;;;;;;5071114;28;19920;-65
2024/01/16 14:07:09;;;;;;;;;;;22.60;34.90;;;;;;5070992;28;19920;-64
2024/01/16 14:09:35;;;;;;;;;;;22.50;35.10;;;;;;5070591;28;20627;-64
2024/01/16 14:12:01;;;;;;;;;;;22.30;34.80;;;;;;5070105;28;19997;-63
2024/01/16 14:14:27;;;;;;;;;;;22.20;34.70;;;;;;5075707;28;20592;-68
2024/01/16 14:16:54;;;;;;;;;;;22.10;34.70;;;;;;5080392;28;19973;-65
2024/01/16 14:19:20;;;;;;;;;;;22.10;34.80;;;;;;5077344;28;20422;-66
2024/01/16 14:21:46;;;;;;;;;;;22.10;34.70;;;;;;5072462;28;19982;-65